Destinations Aarhus Airport

Aarhus Airport (EKAH / AAR)

Flights to Aarhus Airport

Flight number From ETE Dispatch
SPY-2442 EGPH Edinburgh Airport 01:35

Flights from Aarhus Airport

Flight number To ETE Dispatch
SPY-2443 EGPH Edinburgh Airport 01:40
About

Aarhus Airport facts

Aarhus Airport is located in Aarhus at an elevation of 25.0 meters or 82 feet.

Currently, Speedy Airlines serves 2 flights to and from Aarhus Airport.

Detailed airport info

Route map

Weather

Current weather

METAR

METAR

Metar data retrieved Sunday, 21 July 2024 at 20:25 UTC

EKAH 211950Z AUTO 13008KT 100V160 9999 BKN061/// 22/12 Q1008
Wind Temperature
8 kt 22c